createdAt,value
2019-02-15T00:00:54.095Z,102812.41
2019-02-15T00:03:23.438Z,102814.13
2019-02-15T00:05:52.819Z,102813.70
2019-02-15T00:08:22.152Z,102810.69
2019-02-15T00:10:51.504Z,102812.86
2019-02-15T00:13:20.842Z,102811.56
2019-02-15T00:15:50.158Z,102814.56
2019-02-15T00:18:41.522Z,102812.41
2019-02-15T00:21:18.953Z,102814.58
2019-02-15T00:23:48.296Z,102809.40
2019-02-15T00:26:17.647Z,102806.35
2019-02-15T00:28:46.992Z,102805.08
2019-02-15T00:31:19.411Z,102803.78
2019-02-15T00:33:48.743Z,102806.37
2019-02-15T00:36:18.087Z,102799.45
2019-02-15T00:38:47.458Z,102802.91
2019-02-15T00:41:16.955Z,102795.16
2019-02-15T00:43:46.318Z,102796.01
2019-02-15T00:46:40.412Z,102796.43
2019-02-15T00:49:14.259Z,102796.02
2019-02-15T00:51:52.193Z,102791.70
2019-02-15T00:54:36.052Z,102792.55
2019-02-15T00:57:30.477Z,102792.98
2019-02-15T01:00:18.740Z,102802.48
2019-02-15T01:02:58.902Z,102789.95
2019-02-15T01:05:36.131Z,102790.83
2019-02-15T01:08:15.699Z,102792.55
2019-02-15T01:11:09.795Z,102781.77
2019-02-15T01:13:39.151Z,102783.06
2019-02-15T01:16:08.475Z,102778.76
2019-02-15T01:18:53.176Z,102773.13
2019-02-15T01:21:22.517Z,102771.41
2019-02-15T01:23:51.971Z,102768.40
2019-02-15T01:26:31.648Z,102772.71
2019-02-15T01:29:19.932Z,102769.23
2019-02-15T01:32:17.682Z,102766.64
2019-02-15T01:35:11.174Z,102776.59
2019-02-15T01:38:05.355Z,102787.38
2019-02-15T01:40:53.651Z,102789.09
2019-02-15T01:43:49.059Z,102780.90
2019-02-15T01:46:25.011Z,102783.91
2019-02-15T01:48:54.356Z,102782.20
2019-02-15T01:51:26.625Z,102783.50
2019-02-15T01:53:55.951Z,102781.77
2019-02-15T01:56:25.502Z,102780.47
2019-02-15T01:58:54.867Z,102771.41
2019-02-15T02:01:26.487Z,102767.52
2019-02-15T02:03:55.846Z,102768.81
2019-02-15T02:06:25.190Z,102764.06
2019-02-15T02:08:54.743Z,102756.72
2019-02-15T02:11:24.070Z,102760.19
2019-02-15T02:13:53.415Z,102763.62
2019-02-15T02:16:22.823Z,102763.62
2019-02-15T02:18:52.155Z,102761.90
2019-02-15T02:21:21.585Z,102761.03
2019-02-15T02:23:50.909Z,102761.48
2019-02-15T02:26:20.284Z,102761.05
2019-02-15T02:28:49.620Z,102765.78
2019-02-15T02:31:19.383Z,102766.22
2019-02-15T02:33:57.362Z,102761.92
2019-02-15T02:36:48.234Z,102756.30
2019-02-15T02:39:17.585Z,102764.50
2019-02-15T02:41:47.958Z,102751.97
2019-02-15T02:44:17.302Z,102761.91
2019-02-15T02:46:46.789Z,102749.39
2019-02-15T02:49:17.563Z,102750.27
2019-02-15T02:51:46.942Z,102748.09
2019-02-15T02:54:16.268Z,102757.58
2019-02-15T02:56:46.750Z,102756.73
2019-02-15T02:59:16.069Z,102748.97
2019-02-15T03:01:45.398Z,102746.81
2019-02-15T03:04:14.724Z,102745.52
2019-02-15T03:06:44.077Z,102735.16
2019-02-15T03:09:13.454Z,102722.22
2019-02-15T03:11:42.747Z,102725.67
2019-02-15T03:14:12.257Z,102727.81
2019-02-15T03:16:41.652Z,102730.83
2019-02-15T03:19:10.978Z,102732.13
2019-02-15T03:21:40.353Z,102726.08
2019-02-15T03:24:09.726Z,102717.02
2019-02-15T03:26:39.057Z,102716.19
2019-02-15T03:29:09.711Z,102714.43
2019-02-15T03:31:40.563Z,102721.79
2019-02-15T03:34:09.930Z,102712.28
2019-02-15T03:36:58.315Z,102711.44
2019-02-15T03:39:48.955Z,102705.81
2019-02-15T03:42:18.359Z,102701.06
2019-02-15T03:44:47.737Z,102701.48
2019-02-15T03:47:28.400Z,102702.80
2019-02-15T03:49:57.717Z,102698.89
2019-02-15T03:52:27.082Z,102697.61
2019-02-15T03:54:56.414Z,102693.73
2019-02-15T03:57:28.935Z,102694.58
2019-02-15T03:59:58.286Z,102705.38
2019-02-15T04:02:27.719Z,102699.79
2019-02-15T04:04:57.090Z,102694.59
2019-02-15T04:07:26.452Z,102697.19
2019-02-15T04:09:55.847Z,102695.02
2019-02-15T04:12:25.414Z,102683.80
2019-02-15T04:14:54.772Z,102692.02
2019-02-15T04:17:24.154Z,102697.63
2019-02-15T04:19:53.497Z,102695.03
2019-02-15T04:22:22.917Z,102697.63
2019-02-15T04:24:52.283Z,102707.53
2019-02-15T04:27:21.651Z,102716.59
2019-02-15T04:29:52.789Z,102718.75
2019-02-15T04:32:23.606Z,102716.59
2019-02-15T04:34:52.974Z,102714.43
2019-02-15T04:37:22.360Z,102716.59
2019-02-15T04:39:51.725Z,102718.33
2019-02-15T04:42:21.095Z,102725.21
2019-02-15T04:44:51.923Z,102724.36
2019-02-15T04:47:21.283Z,102719.19
2019-02-15T04:49:50.622Z,102720.50
2019-02-15T04:52:19.999Z,102723.92
2019-02-15T04:54:49.345Z,102721.35
2019-02-15T04:57:18.791Z,102726.95
2019-02-15T04:59:48.139Z,102726.52
2019-02-15T05:02:20.590Z,102723.50
2019-02-15T05:04:49.932Z,102729.95
2019-02-15T05:07:19.311Z,102729.95
2019-02-15T05:09:48.695Z,102730.41
2019-02-15T05:12:18.068Z,102726.95
2019-02-15T05:14:53.138Z,102724.80
2019-02-15T05:17:18.475Z,102722.64
2019-02-15T05:19:47.861Z,102714.45
2019-02-15T05:22:17.192Z,102720.06
2019-02-15T05:24:46.655Z,102724.80
2019-02-15T05:27:16.023Z,102718.31
2019-02-15T05:29:45.370Z,102723.49
2019-02-15T05:32:14.716Z,102718.31
2019-02-15T05:34:44.073Z,102721.77
2019-02-15T05:37:13.465Z,102714.86
2019-02-15T05:39:42.867Z,102709.25
2019-02-15T05:42:12.203Z,102702.38
2019-02-15T05:44:41.568Z,102706.66
2019-02-15T05:47:12.753Z,102705.38
2019-02-15T05:49:43.464Z,102701.48
2019-02-15T05:52:12.826Z,102704.50
2019-02-15T05:54:43.170Z,102705.38
2019-02-15T05:57:12.587Z,102696.33
2019-02-15T05:59:41.923Z,102703.22
2019-02-15T06:02:12.291Z,102696.33
2019-02-15T06:04:41.704Z,102695.03
2019-02-15T06:07:11.067Z,102699.78
2019-02-15T06:09:41.549Z,102703.20
2019-02-15T06:12:10.887Z,102705.80
2019-02-15T06:14:42.055Z,102704.50
2019-02-15T06:17:11.393Z,102701.08
2019-02-15T06:19:40.740Z,102697.62
2019-02-15T06:22:10.674Z,102690.70
2019-02-15T06:24:40.021Z,102692.02
2019-02-15T06:27:09.443Z,102691.57
2019-02-15T06:29:45.941Z,102691.59
2019-02-15T06:32:15.256Z,102685.09
2019-02-15T06:34:44.607Z,102684.25
2019-02-15T06:37:13.997Z,102676.05
2019-02-15T06:39:43.342Z,102676.05
2019-02-15T06:42:12.681Z,102673.02
2019-02-15T06:44:42.052Z,102672.16
2019-02-15T06:47:11.506Z,102671.74
2019-02-15T06:49:40.883Z,102669.16
2019-02-15T06:52:11.688Z,102667.41
2019-02-15T06:54:41.054Z,102668.27
2019-02-15T06:57:10.438Z,102670.00
2019-02-15T07:00:04.790Z,102674.33
2019-02-15T07:02:38.729Z,102678.65
2019-02-15T07:05:33.475Z,102685.97
2019-02-15T07:08:02.944Z,102679.07
2019-02-15T07:10:32.297Z,102678.22
2019-02-15T07:13:01.648Z,102688.55
2019-02-15T07:15:33.752Z,102688.11
2019-02-15T07:18:02.171Z,102689.85
2019-02-15T07:20:31.532Z,102696.32
2019-02-15T07:23:00.871Z,102701.50
2019-02-15T07:25:30.225Z,102701.50
2019-02-15T07:27:59.593Z,102707.97
2019-02-15T07:30:28.956Z,102703.66
2019-02-15T07:33:00.780Z,102713.14
2019-02-15T07:35:30.142Z,102711.87
2019-02-15T07:37:59.534Z,102717.87
2019-02-15T07:40:28.852Z,102717.03
2019-02-15T07:42:58.213Z,102724.78
2019-02-15T07:45:27.606Z,102716.59
2019-02-15T07:47:58.577Z,102714.45
2019-02-15T07:50:28.091Z,102715.31
2019-02-15T07:52:59.310Z,102719.19
2019-02-15T07:55:34.465Z,102715.73
2019-02-15T07:58:03.811Z,102720.04
2019-02-15T08:00:33.153Z,102720.48
2019-02-15T08:03:02.642Z,102715.31
2019-02-15T08:05:32.004Z,102718.34
2019-02-15T08:08:03.171Z,102720.05
2019-02-15T08:10:32.674Z,102721.78
2019-02-15T08:13:07.879Z,102713.12
2019-02-15T08:15:37.230Z,102714.87
2019-02-15T08:18:06.583Z,102718.77
2019-02-15T08:20:35.983Z,102714.00
2019-02-15T08:23:05.328Z,102714.86
2019-02-15T08:25:34.718Z,102719.19
2019-02-15T08:28:04.118Z,102715.74
2019-02-15T08:30:34.554Z,102717.91
2019-02-15T08:33:03.933Z,102717.47
2019-02-15T08:35:33.412Z,102720.04
2019-02-15T08:38:02.793Z,102713.99
2019-02-15T08:40:38.012Z,102712.72
2019-02-15T08:43:07.432Z,102723.06
2019-02-15T08:45:37.796Z,102719.60
2019-02-15T08:48:07.169Z,102721.33
2019-02-15T08:50:36.525Z,102726.52
2019-02-15T08:53:05.878Z,102727.36
2019-02-15T08:55:35.244Z,102721.77
2019-02-15T08:58:04.571Z,102717.44
2019-02-15T09:00:35.904Z,102712.69
2019-02-15T09:03:05.262Z,102710.96
2019-02-15T09:05:34.602Z,102715.25
2019-02-15T09:08:03.946Z,102715.25
2019-02-15T09:10:34.366Z,102712.66
2019-02-15T09:13:03.712Z,102713.10
2019-02-15T09:15:33.041Z,102710.49
2019-02-15T09:18:03.413Z,102710.92
2019-02-15T09:20:32.767Z,102710.91
2019-02-15T09:23:02.122Z,102714.35
2019-02-15T09:25:31.489Z,102705.28
2019-02-15T09:28:19.786Z,102708.73
2019-02-15T09:30:52.336Z,102711.75
2019-02-15T09:33:22.037Z,102709.59
2019-02-15T09:35:51.468Z,102710.44
2019-02-15T09:38:20.844Z,102710.00
2019-02-15T09:40:50.246Z,102716.47
2019-02-15T09:43:19.620Z,102713.00
2019-02-15T09:45:48.988Z,102713.42
2019-02-15T09:48:18.372Z,102706.51
2019-02-15T09:50:48.521Z,102699.58
2019-02-15T09:53:17.899Z,102703.45
2019-02-15T09:55:47.300Z,102694.78
2019-02-15T09:58:16.695Z,102694.36
2019-02-15T10:00:46.086Z,102698.24
2019-02-15T10:03:15.486Z,102696.91
2019-02-15T10:05:44.868Z,102697.76
2019-02-15T10:08:14.255Z,102696.45
2019-02-15T10:10:44.745Z,102703.79
2019-02-15T10:13:14.136Z,102705.91
2019-02-15T10:15:43.506Z,102696.41
2019-02-15T10:18:12.862Z,102695.06
2019-02-15T10:20:42.236Z,102689.86
2019-02-15T10:23:12.558Z,102696.77
2019-02-15T10:25:41.910Z,102691.14
2019-02-15T10:28:11.276Z,102690.25
2019-02-15T10:30:40.641Z,102688.94
2019-02-15T10:33:09.971Z,102686.73
2019-02-15T10:35:40.359Z,102689.73
2019-02-15T10:38:09.834Z,102685.79
2019-02-15T10:40:39.221Z,102684.48
2019-02-15T10:43:08.580Z,102674.52
2019-02-15T10:45:37.923Z,102668.84
2019-02-15T10:48:07.267Z,102672.28
2019-02-15T10:50:36.619Z,102668.78
2019-02-15T10:53:05.962Z,102665.73
2019-02-15T10:55:35.351Z,102668.70
2019-02-15T10:58:04.685Z,102663.03
2019-02-15T11:00:34.062Z,102652.19
2019-02-15T11:03:03.397Z,102653.47
2019-02-15T11:05:33.771Z,102645.22
2019-02-15T11:08:04.109Z,102637.81
2019-02-15T11:10:33.481Z,102641.22
2019-02-15T11:13:02.830Z,102636.40
2019-02-15T11:15:33.190Z,102634.61
2019-02-15T11:18:02.580Z,102631.52
2019-02-15T11:20:31.936Z,102632.33
2019-02-15T11:23:01.714Z,102628.80
2019-02-15T11:25:31.047Z,102627.44
2019-02-15T11:28:00.486Z,102626.08
2019-02-15T11:30:29.852Z,102622.94
2019-02-15T11:32:59.193Z,102625.05
2019-02-15T11:35:28.608Z,102618.08
2019-02-15T11:37:57.962Z,102625.77
2019-02-15T11:40:27.338Z,102630.03
2019-02-15T11:42:56.690Z,102633.43
2019-02-15T11:45:26.070Z,102628.16
2019-02-15T11:47:55.426Z,102628.44
2019-02-15T11:50:24.793Z,102619.66
2019-02-15T11:52:54.143Z,102617.40
2019-02-15T11:55:23.833Z,102607.27
2019-02-15T11:57:53.188Z,102605.36
2019-02-15T12:00:27.765Z,102594.81
2019-02-15T12:02:57.110Z,102599.02
2019-02-15T12:05:26.459Z,102586.68
2019-02-15T12:07:55.831Z,102576.95
2019-02-15T12:10:25.291Z,102578.96
2019-02-15T12:12:54.639Z,102576.23
2019-02-15T12:15:24.110Z,102567.35
2019-02-15T12:17:53.446Z,102562.84
2019-02-15T12:20:22.794Z,102551.38
2019-02-15T12:22:52.142Z,102545.52
2019-02-15T12:25:21.519Z,102541.39
2019-02-15T12:27:50.851Z,102538.97
2019-02-15T12:30:20.326Z,102533.95
2019-02-15T12:32:49.705Z,102525.52
2019-02-15T12:35:19.056Z,102523.97
2019-02-15T12:37:48.439Z,102521.58
2019-02-15T12:40:17.811Z,102523.51
2019-02-15T12:42:47.169Z,102515.03
2019-02-15T12:45:16.524Z,102510.87
2019-02-15T12:47:45.872Z,102505.00
2019-02-15T12:50:15.792Z,102490.70
2019-02-15T12:52:45.237Z,102490.70
2019-02-15T12:55:14.614Z,102488.50
2019-02-15T12:57:43.947Z,102472.77
2019-02-15T13:00:14.139Z,102472.69
2019-02-15T13:02:43.495Z,102451.28
2019-02-15T13:05:12.952Z,102451.28
2019-02-15T13:07:42.332Z,102460.18
2019-02-15T13:10:13.922Z,102453.85
2019-02-15T13:12:43.256Z,102453.07
2019-02-15T13:15:12.729Z,102442.34
2019-02-15T13:17:42.087Z,102426.46
2019-02-15T13:20:11.512Z,102426.46
2019-02-15T13:22:40.890Z,102416.48
2019-02-15T13:25:10.252Z,102407.03
2019-02-15T13:27:39.615Z,102408.28
2019-02-15T13:30:10.294Z,102408.28
2019-02-15T13:32:39.656Z,102404.86
2019-02-15T13:35:10.467Z,102395.83
2019-02-15T13:37:39.828Z,102405.48
2019-02-15T13:40:09.768Z,102388.23
2019-02-15T13:42:39.463Z,102373.63
2019-02-15T13:45:09.852Z,102373.63
2019-02-15T13:47:39.198Z,102379.36
2019-02-15T13:50:09.772Z,102361.02
2019-02-15T13:52:39.297Z,102373.83
2019-02-15T13:55:08.881Z,102369.23
2019-02-15T13:57:38.239Z,102370.19
2019-02-15T14:00:08.280Z,102370.11
2019-02-15T14:02:37.638Z,102369.25
2019-02-15T14:05:09.535Z,102361.94
2019-02-15T14:07:38.234Z,102356.91
2019-02-15T14:10:08.849Z,102350.45
2019-02-15T14:12:38.256Z,102350.02
2019-02-15T14:15:08.178Z,102349.58
2019-02-15T14:17:44.185Z,102351.89
2019-02-15T14:20:09.722Z,102352.76
2019-02-15T14:22:39.030Z,102351.45
2019-02-15T14:25:08.783Z,102341.80
2019-02-15T14:27:38.173Z,102342.74
2019-02-15T14:30:08.466Z,102343.67
2019-02-15T14:32:37.807Z,102336.77
2019-02-15T14:35:07.992Z,102333.80
2019-02-15T14:37:37.342Z,102333.98
2019-02-15T14:40:06.885Z,102326.30
2019-02-15T14:42:36.266Z,102329.02
2019-02-15T14:45:05.791Z,102325.27
2019-02-15T14:47:35.151Z,102322.23
2019-02-15T14:50:04.496Z,102314.44
2019-02-15T14:52:33.835Z,102308.64
2019-02-15T14:55:03.185Z,102308.64
2019-02-15T14:57:32.544Z,102311.08
2019-02-15T15:00:01.891Z,102311.77
2019-02-15T15:02:31.254Z,102301.52
2019-02-15T15:05:00.646Z,102299.61
2019-02-15T15:07:29.953Z,102300.55
2019-02-15T15:09:59.282Z,102294.75
2019-02-15T15:12:28.766Z,102293.92
2019-02-15T15:14:58.093Z,102290.23
2019-02-15T15:17:27.438Z,102292.17
2019-02-15T15:19:56.769Z,102284.31
2019-02-15T15:22:26.100Z,102278.55
2019-02-15T15:24:55.463Z,102285.45
2019-02-15T15:27:24.835Z,102279.72
2019-02-15T15:29:54.208Z,102276.95
2019-02-15T15:32:23.557Z,102272.55
2019-02-15T15:34:52.897Z,102268.28
2019-02-15T15:37:22.220Z,102275.89
2019-02-15T15:39:51.579Z,102279.69
2019-02-15T15:42:21.026Z,102276.66
2019-02-15T15:44:50.355Z,102267.05
2019-02-15T15:47:19.726Z,102263.73
2019-02-15T15:49:49.140Z,102263.73
2019-02-15T15:52:18.475Z,102259.48
2019-02-15T15:54:48.077Z,102259.48
2019-02-15T15:57:17.452Z,102270.97
2019-02-15T15:59:46.769Z,102267.58
2019-02-15T16:02:18.443Z,102258.52
2019-02-15T16:04:47.649Z,102260.06
2019-02-15T16:07:17.037Z,102261.05
2019-02-15T16:09:46.375Z,102264.67
2019-02-15T16:12:15.729Z,102259.56
2019-02-15T16:14:45.105Z,102265.19
2019-02-15T16:17:14.452Z,102257.53
2019-02-15T16:19:49.463Z,102244.04
2019-02-15T16:22:14.861Z,102244.04
2019-02-15T16:24:44.729Z,102234.23
2019-02-15T16:27:14.141Z,102238.81
2019-02-15T16:29:43.507Z,102238.81
2019-02-15T16:32:12.886Z,102246.59
2019-02-15T16:34:42.245Z,102240.89
2019-02-15T16:37:11.634Z,102238.75
2019-02-15T16:39:41.022Z,102241.53
2019-02-15T16:42:10.375Z,102249.02
2019-02-15T16:44:39.706Z,102247.36
2019-02-15T16:47:09.027Z,102249.75
2019-02-15T16:49:38.375Z,102249.52
2019-02-15T16:52:07.783Z,102249.70
2019-02-15T16:54:37.233Z,102252.33
2019-02-15T16:57:06.541Z,102249.40
2019-02-15T16:59:35.894Z,102254.22
2019-02-15T17:02:05.249Z,102265.12
2019-02-15T17:04:34.615Z,102263.84
2019-02-15T17:07:04.095Z,102263.89
2019-02-15T17:09:33.451Z,102259.98
2019-02-15T17:12:03.274Z,102263.80
2019-02-15T17:14:32.659Z,102263.72
2019-02-15T17:17:02.069Z,102263.28
2019-02-15T17:19:31.420Z,102267.94
2019-02-15T17:22:00.771Z,102276.93
2019-02-15T17:24:30.120Z,102282.02
2019-02-15T17:26:59.491Z,102281.44
2019-02-15T17:29:28.856Z,102286.98
2019-02-15T17:31:58.223Z,102283.81
2019-02-15T17:34:27.595Z,102283.81
2019-02-15T17:36:56.920Z,102291.91
2019-02-15T17:39:26.273Z,102298.64
2019-02-15T17:41:56.063Z,102304.98
2019-02-15T17:44:25.603Z,102301.94
2019-02-15T17:46:54.989Z,102301.94
2019-02-15T17:49:25.978Z,102311.52
2019-02-15T17:51:55.340Z,102321.31
2019-02-15T17:54:24.983Z,102319.05
2019-02-15T17:56:58.376Z,102326.67
2019-02-15T17:59:28.976Z,102326.67
2019-02-15T18:01:58.346Z,102341.58
2019-02-15T18:04:27.799Z,102332.16
2019-02-15T18:06:57.266Z,102338.80
2019-02-15T18:09:26.620Z,102344.98
2019-02-15T18:11:55.980Z,102346.94
2019-02-15T18:14:25.366Z,102339.27
2019-02-15T18:16:54.738Z,102341.16
2019-02-15T18:19:24.115Z,102350.81
2019-02-15T18:21:53.474Z,102353.11
2019-02-15T18:24:22.820Z,102356.63
2019-02-15T18:26:52.147Z,102361.67
2019-02-15T18:29:21.698Z,102374.73
2019-02-15T18:31:51.092Z,102383.02
2019-02-15T18:34:20.466Z,102383.02
2019-02-15T18:36:49.821Z,102377.48
2019-02-15T18:39:19.207Z,102370.67
2019-02-15T18:41:48.574Z,102378.23
2019-02-15T18:44:17.976Z,102378.23
2019-02-15T18:46:47.353Z,102376.19
2019-02-15T18:49:19.285Z,102376.19
2019-02-15T18:51:48.071Z,102380.66
2019-02-15T18:54:17.769Z,102388.18
2019-02-15T18:56:47.193Z,102388.18
2019-02-15T18:59:16.578Z,102382.59
2019-02-15T19:01:45.975Z,102392.66
2019-02-15T19:04:15.321Z,102389.20
2019-02-15T19:06:44.711Z,102388.14
2019-02-15T19:09:14.598Z,102388.14
2019-02-15T19:11:44.055Z,102387.37
2019-02-15T19:14:13.401Z,102387.37
2019-02-15T19:16:42.746Z,102390.59
2019-02-15T19:19:12.214Z,102378.55
2019-02-15T19:21:41.673Z,102378.55
2019-02-15T19:24:11.067Z,102380.36
2019-02-15T19:26:40.447Z,102380.36
2019-02-15T19:29:09.803Z,102384.81
2019-02-15T19:31:39.163Z,102384.02
2019-02-15T19:34:08.503Z,102379.30
2019-02-15T19:36:37.909Z,102378.89
2019-02-15T19:39:07.676Z,102375.08
2019-02-15T19:41:37.103Z,102372.09
2019-02-15T19:44:06.487Z,102366.47
2019-02-15T19:46:35.992Z,102366.53
2019-02-15T19:49:05.942Z,102367.02
2019-02-15T19:51:35.971Z,102354.48
2019-02-15T19:54:05.468Z,102346.30
2019-02-15T19:56:34.813Z,102345.92
2019-02-15T19:59:04.142Z,102342.03
2019-02-15T20:01:33.496Z,102343.82
2019-02-15T20:04:02.859Z,102338.23
2019-02-15T20:06:32.362Z,102336.98
2019-02-15T20:09:01.732Z,102337.44
2019-02-15T20:11:31.129Z,102331.84
2019-02-15T20:14:00.752Z,102335.37
2019-02-15T20:16:30.425Z,102337.09
2019-02-15T20:18:59.876Z,102336.72
2019-02-15T20:21:29.350Z,102325.92
2019-02-15T20:23:59.036Z,102329.44
2019-02-15T20:26:28.550Z,102334.29
2019-02-15T20:28:58.080Z,102334.29
2019-02-15T20:31:27.704Z,102341.23
2019-02-15T20:33:57.114Z,102343.83
2019-02-15T20:36:26.498Z,102340.78
2019-02-15T20:38:56.169Z,102329.06
2019-02-15T20:41:25.882Z,102325.98
2019-02-15T20:43:56.341Z,102332.50
2019-02-15T20:46:25.919Z,102334.66
2019-02-15T20:49:04.086Z,102334.16
2019-02-15T20:51:26.441Z,102331.13
2019-02-15T20:53:56.096Z,102338.88
2019-02-15T20:56:26.504Z,102348.42
2019-02-15T20:58:56.011Z,102344.91
2019-02-15T21:01:26.442Z,102350.55
2019-02-15T21:03:57.485Z,102354.47
2019-02-15T21:06:26.940Z,102366.14
2019-02-15T21:08:56.405Z,102369.98
2019-02-15T21:11:26.025Z,102365.20
2019-02-15T21:13:55.538Z,102376.83
2019-02-15T21:16:26.154Z,102377.67
2019-02-15T21:18:55.645Z,102374.14
2019-02-15T21:21:25.185Z,102380.61
2019-02-15T21:23:55.808Z,102380.98
2019-02-15T21:26:25.513Z,102376.63
2019-02-15T21:28:55.185Z,102376.52
2019-02-15T21:31:33.666Z,102376.52
2019-02-15T21:34:03.130Z,102378.25
2019-02-15T21:36:32.681Z,102371.85
2019-02-15T21:39:02.102Z,102375.22
2019-02-15T21:41:31.448Z,102373.53
2019-02-15T21:44:00.888Z,102373.53
2019-02-15T21:46:30.392Z,102369.20
2019-02-15T21:48:59.931Z,102352.81
2019-02-15T21:51:29.597Z,102352.81
2019-02-15T21:53:59.143Z,102364.59
2019-02-15T21:56:28.667Z,102357.23
2019-02-15T21:58:58.156Z,102359.88
2019-02-15T22:01:27.720Z,102345.13
2019-02-15T22:03:57.054Z,102358.16
2019-02-15T22:06:27.821Z,102363.80
2019-02-15T22:08:57.315Z,102369.88
2019-02-15T22:11:26.794Z,102370.73
2019-02-15T22:13:56.242Z,102370.73
2019-02-15T22:16:25.757Z,102365.09
2019-02-15T22:18:55.378Z,102369.39
2019-02-15T22:21:24.966Z,102366.77
2019-02-15T22:23:54.474Z,102364.16
2019-02-15T22:26:23.949Z,102364.98
2019-02-15T22:28:53.581Z,102359.75
2019-02-15T22:31:23.203Z,102358.40
2019-02-15T22:33:52.623Z,102356.17
2019-02-15T22:36:23.466Z,102357.03
2019-02-15T22:38:52.899Z,102351.75
2019-02-15T22:41:22.303Z,102354.31
2019-02-15T22:43:51.672Z,102342.95
2019-02-15T22:46:21.104Z,102346.41
2019-02-15T22:48:50.585Z,102340.70
2019-02-15T22:51:19.900Z,102332.81
2019-02-15T22:53:49.269Z,102332.81
2019-02-15T22:56:18.642Z,102330.59
2019-02-15T22:58:48.067Z,102332.28
2019-02-15T23:01:19.291Z,102330.53
2019-02-15T23:03:48.704Z,102325.30
2019-02-15T23:06:18.078Z,102325.69
2019-02-15T23:08:47.484Z,102324.80
2019-02-15T23:11:37.721Z,102326.06
2019-02-15T23:14:07.128Z,102316.49
2019-02-15T23:16:36.550Z,102314.75
2019-02-15T23:19:05.958Z,102313.87
2019-02-15T23:21:35.396Z,102308.66
2019-02-15T23:24:04.791Z,102307.30
2019-02-15T23:26:34.194Z,102309.02
2019-02-15T23:29:03.581Z,102306.42
2019-02-15T23:31:32.969Z,102305.48
2019-02-15T23:34:02.730Z,102297.22
2019-02-15T23:36:32.089Z,102297.22
2019-02-15T23:39:01.513Z,102303.69
2019-02-15T23:41:30.855Z,102302.38
2019-02-15T23:44:00.276Z,102297.59
2019-02-15T23:46:29.732Z,102298.84
2019-02-15T23:48:59.111Z,102304.05
2019-02-15T23:51:28.522Z,102306.22
2019-02-15T23:53:57.913Z,102301.87
2019-02-15T23:56:27.270Z,102301.43
2019-02-15T23:58:56.675Z,102300.52
